sensor_id;sensor_type;location;lat;lon;timestamp;pressure;altitude;pressure_sealevel;temperature;humidity
23261;BME280;11799;47.740;-3.390;2023-03-15T00:02:01;101693.25;;;7.13;100.00
23261;BME280;11799;47.740;-3.390;2023-03-15T00:04:27;101693.09;;;7.16;100.00
23261;BME280;11799;47.740;-3.390;2023-03-15T00:06:53;101694.78;;;7.17;100.00
23261;BME280;11799;47.740;-3.390;2023-03-15T00:09:19;101699.13;;;7.18;100.00
23261;BME280;11799;47.740;-3.390;2023-03-15T00:11:47;101699.88;;;7.20;100.00
23261;BME280;11799;47.740;-3.390;2023-03-15T00:14:16;101698.19;;;7.19;100.00
23261;BME280;11799;47.740;-3.390;2023-03-15T00:16:42;101694.41;;;7.24;100.00
23261;BME280;11799;47.740;-3.390;2023-03-15T00:19:09;101695.25;;;7.25;100.00
23261;BME280;11799;47.740;-3.390;2023-03-15T00:21:35;101701.38;;;7.25;100.00
23261;BME280;11799;47.740;-3.390;2023-03-15T00:24:01;101700.50;;;7.25;100.00
23261;BME280;11799;47.740;-3.390;2023-03-15T00:26:26;101703.28;;;7.22;100.00
23261;BME280;11799;47.740;-3.390;2023-03-15T00:28:52;101694.47;;;7.23;100.00
23261;BME280;11799;47.740;-3.390;2023-03-15T00:31:20;101697.81;;;7.26;100.00
23261;BME280;11799;47.740;-3.390;2023-03-15T00:33:47;101690.94;;;7.24;100.00
23261;BME280;11799;47.740;-3.390;2023-03-15T00:36:13;101699.66;;;7.24;100.00
23261;BME280;11799;47.740;-3.390;2023-03-15T00:38:40;101706.63;;;7.25;100.00
23261;BME280;11799;47.740;-3.390;2023-03-15T00:41:16;101701.38;;;7.25;100.00
23261;BME280;11799;47.740;-3.390;2023-03-15T00:43:44;101703.28;;;7.22;100.00
23261;BME280;11799;47.740;-3.390;2023-03-15T00:46:10;101708.41;;;7.25;100.00
23261;BME280;11799;47.740;-3.390;2023-03-15T00:48:36;101700.50;;;7.25;100.00
23261;BME280;11799;47.740;-3.390;2023-03-15T00:51:15;101707.47;;;7.26;100.00
23261;BME280;11799;47.740;-3.390;2023-03-15T00:53:44;101712.88;;;7.23;100.00
23261;BME280;11799;47.740;-3.390;2023-03-15T00:56:16;101719.13;;;7.20;100.00
23261;BME280;11799;47.740;-3.390;2023-03-15T00:58:42;101722.53;;;7.22;100.00
23261;BME280;11799;47.740;-3.390;2023-03-15T01:01:16;101726.00;;;7.23;100.00
23261;BME280;11799;47.740;-3.390;2023-03-15T01:03:43;101724.84;;;7.28;100.00
23261;BME280;11799;47.740;-3.390;2023-03-15T01:06:14;101717.97;;;7.26;100.00
23261;BME280;11799;47.740;-3.390;2023-03-15T01:08:41;101728.50;;;7.26;100.00
23261;BME280;11799;47.740;-3.390;2023-03-15T01:11:10;101730.34;;;7.24;100.00
23261;BME280;11799;47.740;-3.390;2023-03-15T01:13:36;101730.03;;;7.30;100.00
23261;BME280;11799;47.740;-3.390;2023-03-15T01:16:02;101739.84;;;7.26;100.00
23261;BME280;11799;47.740;-3.390;2023-03-15T01:18:28;101742.41;;;7.28;100.00
23261;BME280;11799;47.740;-3.390;2023-03-15T01:20:55;101738.84;;;7.29;100.00
23261;BME280;11799;47.740;-3.390;2023-03-15T01:23:21;101732.75;;;7.28;100.00
23261;BME280;11799;47.740;-3.390;2023-03-15T01:25:47;101738.78;;;7.31;100.00
23261;BME280;11799;47.740;-3.390;2023-03-15T01:28:12;101735.00;;;7.36;100.00
23261;BME280;11799;47.740;-3.390;2023-03-15T01:30:38;101729.75;;;7.36;100.00
23261;BME280;11799;47.740;-3.390;2023-03-15T01:33:04;101733.38;;;7.34;100.00
23261;BME280;11799;47.740;-3.390;2023-03-15T01:35:30;101726.34;;;7.34;100.00
23261;BME280;11799;47.740;-3.390;2023-03-15T01:37:56;101736.53;;;7.40;100.00
23261;BME280;11799;47.740;-3.390;2023-03-15T01:40:22;101724.25;;;7.41;100.00
23261;BME280;11799;47.740;-3.390;2023-03-15T01:43:13;101734.75;;;7.41;100.00
23261;BME280;11799;47.740;-3.390;2023-03-15T01:50:56;101731.06;;;7.45;100.00
23261;BME280;11799;47.740;-3.390;2023-03-15T01:53:24;101729.44;;;7.42;100.00
23261;BME280;11799;47.740;-3.390;2023-03-15T01:55:52;101733.84;;;7.42;100.00
23261;BME280;11799;47.740;-3.390;2023-03-15T01:58:24;101724.19;;;7.42;100.00
23261;BME280;11799;47.740;-3.390;2023-03-15T02:00:51;101718.91;;;7.42;100.00
23261;BME280;11799;47.740;-3.390;2023-03-15T02:03:22;101718.84;;;7.44;100.00
23261;BME280;11799;47.740;-3.390;2023-03-15T02:05:56;101716.53;;;7.38;100.00
23261;BME280;11799;47.740;-3.390;2023-03-15T02:08:50;101713.75;;;7.41;100.00
23261;BME280;11799;47.740;-3.390;2023-03-15T02:11:19;101702.22;;;7.43;100.00
23261;BME280;11799;47.740;-3.390;2023-03-15T02:13:47;101698.75;;;7.43;100.00
23261;BME280;11799;47.740;-3.390;2023-03-15T02:16:15;101692.72;;;7.41;100.00
23261;BME280;11799;47.740;-3.390;2023-03-15T02:18:45;101691.88;;;7.40;100.00
23261;BME280;11799;47.740;-3.390;2023-03-15T02:23:43;101693.09;;;7.33;100.00
23261;BME280;11799;47.740;-3.390;2023-03-15T02:28:59;101694.25;;;7.27;100.00
23261;BME280;11799;47.740;-3.390;2023-03-15T02:31:25;101692.78;;;7.22;100.00
23261;BME280;11799;47.740;-3.390;2023-03-15T02:33:52;101699.19;;;7.16;100.00
23261;BME280;11799;47.740;-3.390;2023-03-15T02:36:28;101698.28;;;7.17;100.00
23261;BME280;11799;47.740;-3.390;2023-03-15T02:38:58;101694.88;;;7.15;100.00
23261;BME280;11799;47.740;-3.390;2023-03-15T02:41:28;101692.63;;;7.08;100.00
23261;BME280;11799;47.740;-3.390;2023-03-15T02:43:59;101691.00;;;7.05;100.00
23261;BME280;11799;47.740;-3.390;2023-03-15T02:46:26;101689.22;;;7.06;100.00
23261;BME280;11799;47.740;-3.390;2023-03-15T02:48:52;101682.19;;;7.06;100.00
23261;BME280;11799;47.740;-3.390;2023-03-15T02:51:21;101684.66;;;7.09;100.00
23261;BME280;11799;47.740;-3.390;2023-03-15T02:53:49;101685.81;;;7.04;100.00
23261;BME280;11799;47.740;-3.390;2023-03-15T02:56:15;101672.19;;;6.95;100.00
23261;BME280;11799;47.740;-3.390;2023-03-15T02:58:42;101677.63;;;6.92;100.00
23261;BME280;11799;47.740;-3.390;2023-03-15T03:01:12;101672.53;;;6.89;100.00
23261;BME280;11799;47.740;-3.390;2023-03-15T03:03:42;101671.69;;;6.89;100.00
23261;BME280;11799;47.740;-3.390;2023-03-15T03:06:09;101672.69;;;6.86;100.00
23261;BME280;11799;47.740;-3.390;2023-03-15T03:08:37;101670.28;;;6.82;100.00
23261;BME280;11799;47.740;-3.390;2023-03-15T03:11:05;101672.75;;;6.85;100.00
23261;BME280;11799;47.740;-3.390;2023-03-15T03:13:31;101664.09;;;6.83;100.00
23261;BME280;11799;47.740;-3.390;2023-03-15T03:15:56;101673.75;;;6.82;100.00
23261;BME280;11799;47.740;-3.390;2023-03-15T03:18:28;101667.50;;;6.85;100.00
23261;BME280;11799;47.740;-3.390;2023-03-15T03:20:55;101669.44;;;6.81;100.00
23261;BME280;11799;47.740;-3.390;2023-03-15T03:23:23;101674.59;;;6.83;100.00
23261;BME280;11799;47.740;-3.390;2023-03-15T03:25:54;101679.16;;;6.79;100.00
23261;BME280;11799;47.740;-3.390;2023-03-15T03:28:21;101680.94;;;6.79;100.00
23261;BME280;11799;47.740;-3.390;2023-03-15T03:30:49;101689.50;;;6.82;100.00
23261;BME280;11799;47.740;-3.390;2023-03-15T03:33:15;101687.72;;;6.83;100.00
23261;BME280;11799;47.740;-3.390;2023-03-15T03:35:41;101700.41;;;6.92;100.00
23261;BME280;11799;47.740;-3.390;2023-03-15T03:38:08;101695.31;;;6.89;100.00
23261;BME280;11799;47.740;-3.390;2023-03-15T03:40:38;101694.25;;;6.93;100.00
23261;BME280;11799;47.740;-3.390;2023-03-15T03:43:06;101696.75;;;6.94;100.00
23261;BME280;11799;47.740;-3.390;2023-03-15T03:45:32;101695.69;;;6.99;100.00
23261;BME280;11799;47.740;-3.390;2023-03-15T03:47:58;101698.47;;;6.95;100.00
23261;BME280;11799;47.740;-3.390;2023-03-15T03:50:24;101694.25;;;6.93;100.00
23261;BME280;11799;47.740;-3.390;2023-03-15T03:52:50;101705.41;;;6.96;100.00
23261;BME280;11799;47.740;-3.390;2023-03-15T03:55:29;101691.91;;;6.87;100.00
23261;BME280;11799;47.740;-3.390;2023-03-15T03:57:58;101687.38;;;6.90;100.00
23261;BME280;11799;47.740;-3.390;2023-03-15T04:00:38;101677.78;;;6.89;100.00
23261;BME280;11799;47.740;-3.390;2023-03-15T04:03:05;101681.63;;;6.82;100.00
23261;BME280;11799;47.740;-3.390;2023-03-15T04:05:33;101684.63;;;6.75;100.00
23261;BME280;11799;47.740;-3.390;2023-03-15T04:07:58;101682.28;;;6.69;100.00
23261;BME280;11799;47.740;-3.390;2023-03-15T04:10:26;101685.13;;;6.64;100.00
23261;BME280;11799;47.740;-3.390;2023-03-15T04:12:53;101688.69;;;6.63;100.00
23261;BME280;11799;47.740;-3.390;2023-03-15T04:15:19;101685.13;;;6.64;100.00
23261;BME280;11799;47.740;-3.390;2023-03-15T04:17:50;101686.19;;;6.60;100.00
23261;BME280;11799;47.740;-3.390;2023-03-15T04:20:27;101692.72;;;6.51;100.00
23261;BME280;11799;47.740;-3.390;2023-03-15T04:22:53;101689.25;;;6.51;100.00
23261;BME280;11799;47.740;-3.390;2023-03-15T04:25:39;101687.00;;;6.43;100.00
23261;BME280;11799;47.740;-3.390;2023-03-15T04:28:14;101685.28;;;6.42;100.00
23261;BME280;11799;47.740;-3.390;2023-03-15T04:30:56;101686.13;;;6.43;100.00
23261;BME280;11799;47.740;-3.390;2023-03-15T04:33:39;101679.41;;;6.37;100.00
23261;BME280;11799;47.740;-3.390;2023-03-15T04:36:28;101683.59;;;6.41;100.00
23261;BME280;11799;47.740;-3.390;2023-03-15T04:39:30;101677.94;;;6.32;100.00
23261;BME280;11799;47.740;-3.390;2023-03-15T04:42:22;101686.66;;;6.32;100.00
23261;BME280;11799;47.740;-3.390;2023-03-15T04:45:05;101691.47;;;6.22;100.00
23261;BME280;11799;47.740;-3.390;2023-03-15T04:47:34;101690.34;;;6.28;100.00
23261;BME280;11799;47.740;-3.390;2023-03-15T04:50:21;101694.94;;;6.23;100.00
23261;BME280;11799;47.740;-3.390;2023-03-15T04:53:09;101684.53;;;6.21;100.00
23261;BME280;11799;47.740;-3.390;2023-03-15T04:55:51;101679.44;;;6.18;100.00
23261;BME280;11799;47.740;-3.390;2023-03-15T04:58:42;101679.78;;;6.11;100.00
23261;BME280;11799;47.740;-3.390;2023-03-15T05:01:31;101683.09;;;6.14;100.00
23261;BME280;11799;47.740;-3.390;2023-03-15T05:04:22;101686.72;;;6.12;100.00
23261;BME280;11799;47.740;-3.390;2023-03-15T05:07:07;101681.63;;;6.09;100.00
23261;BME280;11799;47.740;-3.390;2023-03-15T05:09:56;101678.28;;;6.05;100.00
23261;BME280;11799;47.740;-3.390;2023-03-15T05:12:50;101675.06;;;5.99;100.00
23261;BME280;11799;47.740;-3.390;2023-03-15T05:15:34;101676.13;;;5.94;100.00
23261;BME280;11799;47.740;-3.390;2023-03-15T05:18:12;101690.38;;;5.89;100.00
23261;BME280;11799;47.740;-3.390;2023-03-15T05:20:49;101688.47;;;5.92;100.00
23261;BME280;11799;47.740;-3.390;2023-03-15T05:23:28;101679.69;;;5.93;100.00
23261;BME280;11799;47.740;-3.390;2023-03-15T05:26:06;101664.16;;;5.89;100.00
23261;BME280;11799;47.740;-3.390;2023-03-15T05:28:41;101660.66;;;5.88;100.00
23261;BME280;11799;47.740;-3.390;2023-03-15T05:31:29;101658.00;;;5.90;100.00
23261;BME280;11799;47.740;-3.390;2023-03-15T05:34:19;101665.88;;;5.88;100.00
23261;BME280;11799;47.740;-3.390;2023-03-15T05:37:21;101655.59;;;5.84;100.00
23261;BME280;11799;47.740;-3.390;2023-03-15T05:39:53;101661.38;;;5.92;100.00
23261;BME280;11799;47.740;-3.390;2023-03-15T05:42:44;101665.56;;;5.96;100.00
23261;BME280;11799;47.740;-3.390;2023-03-15T05:45:15;101672.19;;;5.84;100.00
23261;BME280;11799;47.740;-3.390;2023-03-15T05:48:10;101670.28;;;5.88;100.00
23261;BME280;11799;47.740;-3.390;2023-03-15T05:50:47;101666.81;;;5.87;100.00
23261;BME280;11799;47.740;-3.390;2023-03-15T05:53:35;101663.34;;;5.87;100.00
23261;BME280;11799;47.740;-3.390;2023-03-15T05:56:30;101672.06;;;5.87;100.00
23261;BME280;11799;47.740;-3.390;2023-03-15T05:59:14;101668.47;;;5.90;100.00
23261;BME280;11799;47.740;-3.390;2023-03-15T06:02:00;101676.06;;;5.96;100.00
23261;BME280;11799;47.740;-3.390;2023-03-15T06:04:33;101676.13;;;5.94;100.00
23261;BME280;11799;47.740;-3.390;2023-03-15T06:06:59;101672.38;;;6.00;100.00
23261;BME280;11799;47.740;-3.390;2023-03-15T06:09:25;101676.78;;;6.00;100.00
23261;BME280;11799;47.740;-3.390;2023-03-15T06:11:51;101688.97;;;6.01;100.00
23261;BME280;11799;47.740;-3.390;2023-03-15T06:14:16;101682.81;;;6.02;100.00
23261;BME280;11799;47.740;-3.390;2023-03-15T06:16:48;101680.84;;;6.07;100.00
23261;BME280;11799;47.740;-3.390;2023-03-15T06:19:14;101683.09;;;6.14;100.00
23261;BME280;11799;47.740;-3.390;2023-03-15T06:21:40;101675.38;;;6.11;100.00
23261;BME280;11799;47.740;-3.390;2023-03-15T06:24:14;101670.06;;;6.13;100.00
23261;BME280;11799;47.740;-3.390;2023-03-15T06:26:40;101671.50;;;6.20;100.00
23261;BME280;11799;47.740;-3.390;2023-03-15T06:29:06;101671.28;;;6.24;100.00
23261;BME280;11799;47.740;-3.390;2023-03-15T06:31:32;101675.59;;;6.25;100.00
23261;BME280;11799;47.740;-3.390;2023-03-15T06:34:03;101678.94;;;6.29;100.00
23261;BME280;11799;47.740;-3.390;2023-03-15T06:36:28;101676.16;;;6.32;100.00
23261;BME280;11799;47.740;-3.390;2023-03-15T06:38:55;101671.69;;;6.34;100.00
23261;BME280;11799;47.740;-3.390;2023-03-15T06:41:21;101669.06;;;6.34;100.00
23261;BME280;11799;47.740;-3.390;2023-03-15T06:43:50;101671.31;;;6.42;100.00
23261;BME280;11799;47.740;-3.390;2023-03-15T06:46:15;101670.41;;;6.43;100.00
23261;BME280;11799;47.740;-3.390;2023-03-15T06:48:41;101677.13;;;6.48;100.00
23261;BME280;11799;47.740;-3.390;2023-03-15T06:51:08;101669.03;;;6.53;100.00
23261;BME280;11799;47.740;-3.390;2023-03-15T06:53:34;101666.34;;;6.54;100.00
23261;BME280;11799;47.740;-3.390;2023-03-15T06:56:00;101667.91;;;6.58;100.00
23261;BME280;11799;47.740;-3.390;2023-03-15T06:58:25;101661.50;;;6.64;100.00
23261;BME280;11799;47.740;-3.390;2023-03-15T07:00:51;101657.09;;;6.65;100.00
23261;BME280;11799;47.740;-3.390;2023-03-15T07:03:16;101641.38;;;6.65;100.00
23261;BME280;11799;47.740;-3.390;2023-03-15T07:05:43;101645.31;;;6.73;100.00
23261;BME280;11799;47.740;-3.390;2023-03-15T07:08:10;101635.53;;;6.77;100.00
23261;BME280;11799;47.740;-3.390;2023-03-15T07:10:36;101639.69;;;6.81;100.00
23261;BME280;11799;47.740;-3.390;2023-03-15T07:13:01;101644.72;;;6.85;100.00
23261;BME280;11799;47.740;-3.390;2023-03-15T07:15:28;101653.22;;;6.90;100.00
23261;BME280;11799;47.740;-3.390;2023-03-15T07:17:54;101645.50;;;6.87;100.00
23261;BME280;11799;47.740;-3.390;2023-03-15T07:20:19;101642.66;;;6.92;100.00
23261;BME280;11799;47.740;-3.390;2023-03-15T07:22:45;101653.81;;;6.95;100.00
23261;BME280;11799;47.740;-3.390;2023-03-15T07:25:10;101649.69;;;6.91;100.00
23261;BME280;11799;47.740;-3.390;2023-03-15T07:27:36;101657.22;;;6.97;100.00
23261;BME280;11799;47.740;-3.390;2023-03-15T07:30:02;101665.94;;;6.98;100.00
23261;BME280;11799;47.740;-3.390;2023-03-15T07:32:28;101664.94;;;7.01;100.00
23261;BME280;11799;47.740;-3.390;2023-03-15T07:34:56;101667.28;;;7.07;100.00
23261;BME280;11799;47.740;-3.390;2023-03-15T07:37:26;101683.03;;;7.07;100.00
23261;BME280;11799;47.740;-3.390;2023-03-15T07:39:52;101678.56;;;7.09;100.00
23261;BME280;11799;47.740;-3.390;2023-03-15T07:42:17;101680.09;;;7.13;100.00
23261;BME280;11799;47.740;-3.390;2023-03-15T07:44:48;101672.22;;;7.13;100.00
23261;BME280;11799;47.740;-3.390;2023-03-15T07:47:14;101679.09;;;7.15;100.00
23261;BME280;11799;47.740;-3.390;2023-03-15T07:49:39;101679.72;;;7.20;100.00
23261;BME280;11799;47.740;-3.390;2023-03-15T07:52:05;101678.66;;;7.24;100.00
23261;BME280;11799;47.740;-3.390;2023-03-15T07:54:31;101681.97;;;7.28;100.00
23261;BME280;11799;47.740;-3.390;2023-03-15T07:56:58;101672.31;;;7.28;100.00
23261;BME280;11799;47.740;-3.390;2023-03-15T07:59:24;101672.09;;;7.33;100.00
23261;BME280;11799;47.740;-3.390;2023-03-15T08:01:50;101678.72;;;7.40;100.00
23261;BME280;11799;47.740;-3.390;2023-03-15T08:04:15;101674.47;;;7.38;100.00
23261;BME280;11799;47.740;-3.390;2023-03-15T08:06:41;101666.44;;;7.41;100.00
23261;BME280;11799;47.740;-3.390;2023-03-15T08:09:06;101676.72;;;7.45;100.00
23261;BME280;11799;47.740;-3.390;2023-03-15T08:11:32;101674.78;;;7.49;100.00
23261;BME280;11799;47.740;-3.390;2023-03-15T08:13:58;101678.94;;;7.53;100.00
23261;BME280;11799;47.740;-3.390;2023-03-15T08:16:24;101677.75;;;7.58;100.00
23261;BME280;11799;47.740;-3.390;2023-03-15T08:18:49;101680.94;;;7.65;100.00
23261;BME280;11799;47.740;-3.390;2023-03-15T08:21:15;101676.28;;;7.70;100.00
23261;BME280;11799;47.740;-3.390;2023-03-15T08:23:40;101679.50;;;7.75;100.00
23261;BME280;11799;47.740;-3.390;2023-03-15T08:26:06;101682.69;;;7.82;100.00
23261;BME280;11799;47.740;-3.390;2023-03-15T08:28:31;101669.38;;;7.85;100.00
23261;BME280;11799;47.740;-3.390;2023-03-15T08:30:57;101674.16;;;7.94;100.00
23261;BME280;11799;47.740;-3.390;2023-03-15T08:33:23;101679.84;;;8.02;100.00
23261;BME280;11799;47.740;-3.390;2023-03-15T08:35:52;101677.06;;;8.05;100.00
23261;BME280;11799;47.740;-3.390;2023-03-15T08:38:18;101686.28;;;8.12;100.00
23261;BME280;11799;47.740;-3.390;2023-03-15T08:40:44;101686.91;;;8.17;100.00
23261;BME280;11799;47.740;-3.390;2023-03-15T08:43:11;101680.53;;;8.21;100.00
23261;BME280;11799;47.740;-3.390;2023-03-15T08:45:36;101675.88;;;8.26;100.00
23261;BME280;11799;47.740;-3.390;2023-03-15T08:48:02;101679.91;;;8.34;100.00
23261;BME280;11799;47.740;-3.390;2023-03-15T08:50:28;101684.75;;;8.41;100.00
23261;BME280;11799;47.740;-3.390;2023-03-15T08:52:56;101686.13;;;8.48;100.00
23261;BME280;11799;47.740;-3.390;2023-03-15T08:55:21;101681.34;;;8.55;100.00
23261;BME280;11799;47.740;-3.390;2023-03-15T08:57:47;101682.88;;;8.59;100.00
23261;BME280;11799;47.740;-3.390;2023-03-15T09:00:13;101683.28;;;8.67;100.00
23261;BME280;11799;47.740;-3.390;2023-03-15T09:02:45;101681.75;;;8.79;100.00
23261;BME280;11799;47.740;-3.390;2023-03-15T09:05:13;101681.31;;;8.86;100.00
23261;BME280;11799;47.740;-3.390;2023-03-15T09:07:41;101685.88;;;8.99;100.00
23261;BME280;11799;47.740;-3.390;2023-03-15T09:10:08;101687.81;;;9.11;100.00
23261;BME280;11799;47.740;-3.390;2023-03-15T09:12:34;101689.06;;;9.19;100.00
23261;BME280;11799;47.740;-3.390;2023-03-15T09:15:04;101680.69;;;9.27;100.00
23261;BME280;11799;47.740;-3.390;2023-03-15T09:17:29;101692.47;;;9.36;100.00
23261;BME280;11799;47.740;-3.390;2023-03-15T09:19:56;101685.91;;;9.43;100.00
23261;BME280;11799;47.740;-3.390;2023-03-15T09:22:21;101693.56;;;9.47;100.00
23261;BME280;11799;47.740;-3.390;2023-03-15T09:24:47;101692.16;;;9.56;100.00
23261;BME280;11799;47.740;-3.390;2023-03-15T09:27:12;101688.31;;;9.62;100.00
23261;BME280;11799;47.740;-3.390;2023-03-15T09:29:38;101695.84;;;9.68;100.00
23261;BME280;11799;47.740;-3.390;2023-03-15T09:32:03;101698.22;;;9.72;100.00
23261;BME280;11799;47.740;-3.390;2023-03-15T09:34:29;101702.38;;;9.76;100.00
23261;BME280;11799;47.740;-3.390;2023-03-15T09:36:55;101705.66;;;9.80;100.00
23261;BME280;11799;47.740;-3.390;2023-03-15T09:39:21;101698.59;;;9.80;100.00
23261;BME280;11799;47.740;-3.390;2023-03-15T09:41:54;101699.25;;;9.84;100.00
23261;BME280;11799;47.740;-3.390;2023-03-15T09:44:38;101694.53;;;9.89;100.00
23261;BME280;11799;47.740;-3.390;2023-03-15T09:47:31;101691.72;;;9.92;100.00
23261;BME280;11799;47.740;-3.390;2023-03-15T09:50:09;101699.44;;;9.95;100.00
23261;BME280;11799;47.740;-3.390;2023-03-15T09:53:00;101695.66;;;9.99;100.00
23261;BME280;11799;47.740;-3.390;2023-03-15T09:55:28;101692.84;;;10.02;100.00
23261;BME280;11799;47.740;-3.390;2023-03-15T09:58:42;101685.41;;;10.09;100.00
23261;BME280;11799;47.740;-3.390;2023-03-15T10:01:01;101687.00;;;10.11;100.00
23261;BME280;11799;47.740;-3.390;2023-03-15T10:08:39;101668.81;;;10.35;100.00
23261;BME280;11799;47.740;-3.390;2023-03-15T10:11:30;101665.47;;;10.46;100.00
23261;BME280;11799;47.740;-3.390;2023-03-15T10:16:46;101655.31;;;10.67;100.00
23261;BME280;11799;47.740;-3.390;2023-03-15T10:29:46;101639.66;;;10.90;100.00
23261;BME280;11799;47.740;-3.390;2023-03-15T10:32:18;101643.25;;;10.89;100.00
23261;BME280;11799;47.740;-3.390;2023-03-15T10:34:48;101642.31;;;10.90;100.00
23261;BME280;11799;47.740;-3.390;2023-03-15T10:37:17;101646.75;;;10.90;100.00
23261;BME280;11799;47.740;-3.390;2023-03-15T10:39:47;101653.38;;;10.83;100.00
23261;BME280;11799;47.740;-3.390;2023-03-15T10:42:29;101648.19;;;10.81;100.00
23261;BME280;11799;47.740;-3.390;2023-03-15T10:44:55;101646.31;;;10.83;100.00
23261;BME280;11799;47.740;-3.390;2023-03-15T10:47:23;101652.44;;;10.84;100.00
23261;BME280;11799;47.740;-3.390;2023-03-15T10:49:49;101655.94;;;10.84;100.00
23261;BME280;11799;47.740;-3.390;2023-03-15T10:54:59;101651.59;;;10.83;100.00
23261;BME280;11799;47.740;-3.390;2023-03-15T10:57:27;101654.78;;;10.88;100.00
23261;BME280;11799;47.740;-3.390;2023-03-15T11:00:00;101649.69;;;10.85;100.00
23261;BME280;11799;47.740;-3.390;2023-03-15T11:02:31;101641.41;;;10.77;100.00
23261;BME280;11799;47.740;-3.390;2023-03-15T11:07:36;101637.19;;;10.75;100.00
23261;BME280;11799;47.740;-3.390;2023-03-15T11:10:05;101636.72;;;10.68;100.00
23261;BME280;11799;47.740;-3.390;2023-03-15T11:12:32;101637.78;;;10.66;100.00
23261;BME280;11799;47.740;-3.390;2023-03-15T11:15:00;101618.44;;;10.65;100.00
23261;BME280;11799;47.740;-3.390;2023-03-15T11:17:30;101625.50;;;10.65;100.00
23261;BME280;11799;47.740;-3.390;2023-03-15T11:20:03;101626.91;;;10.70;100.00
23261;BME280;11799;47.740;-3.390;2023-03-15T11:22:41;101613.69;;;10.70;100.00
23261;BME280;11799;47.740;-3.390;2023-03-15T11:25:16;101612.66;;;10.73;100.00
23261;BME280;11799;47.740;-3.390;2023-03-15T11:27:43;101607.16;;;10.76;100.00
23261;BME280;11799;47.740;-3.390;2023-03-15T11:30:13;101613.00;;;10.81;100.00
23261;BME280;11799;47.740;-3.390;2023-03-15T11:32:40;101611.22;;;10.81;100.00
23261;BME280;11799;47.740;-3.390;2023-03-15T11:35:24;101613.19;;;10.78;100.00
23261;BME280;11799;47.740;-3.390;2023-03-15T11:37:57;101614.91;;;10.79;100.00
23261;BME280;11799;47.740;-3.390;2023-03-15T11:40:47;101622.81;;;10.79;100.00
23261;BME280;11799;47.740;-3.390;2023-03-15T11:43:55;101631.59;;;10.79;100.00
23261;BME280;11799;47.740;-3.390;2023-03-15T11:46:32;101624.91;;;10.74;100.00
23261;BME280;11799;47.740;-3.390;2023-03-15T11:49:32;101636.34;;;10.74;100.00
23261;BME280;11799;47.740;-3.390;2023-03-15T11:51:59;101627.75;;;10.71;100.00
23261;BME280;11799;47.740;-3.390;2023-03-15T11:54:28;101615.69;;;10.67;100.00
23261;BME280;11799;47.740;-3.390;2023-03-15T11:56:58;101612.22;;;10.66;100.00
23261;BME280;11799;47.740;-3.390;2023-03-15T11:59:37;101619.28;;;10.66;100.00
23261;BME280;11799;47.740;-3.390;2023-03-15T12:07:04;101616.88;;;10.75;100.00
23261;BME280;11799;47.740;-3.390;2023-03-15T12:14:44;101611.75;;;10.86;100.00
23261;BME280;11799;47.740;-3.390;2023-03-15T12:20:05;101598.34;;;10.89;100.00
23261;BME280;11799;47.740;-3.390;2023-03-15T12:22:37;101595.59;;;10.91;100.00
23261;BME280;11799;47.740;-3.390;2023-03-15T12:27:52;101609.84;;;10.88;100.00
23261;BME280;11799;47.740;-3.390;2023-03-15T12:30:31;101610.06;;;10.85;100.00
23261;BME280;11799;47.740;-3.390;2023-03-15T12:32:58;101602.00;;;10.74;100.00
23261;BME280;11799;47.740;-3.390;2023-03-15T12:35:38;101606.63;;;10.71;100.00
23261;BME280;11799;47.740;-3.390;2023-03-15T12:38:12;101607.22;;;10.62;100.00
23261;BME280;11799;47.740;-3.390;2023-03-15T12:40:55;101595.91;;;10.59;100.00
23261;BME280;11799;47.740;-3.390;2023-03-15T12:51:43;101602.28;;;10.43;100.00
23261;BME280;11799;47.740;-3.390;2023-03-15T12:54:18;101595.53;;;10.39;100.00
23261;BME280;11799;47.740;-3.390;2023-03-15T12:57:03;101582.72;;;10.33;100.00
23261;BME280;11799;47.740;-3.390;2023-03-15T12:59:49;101571.22;;;10.34;100.00
23261;BME280;11799;47.740;-3.390;2023-03-15T13:08:23;101568.97;;;10.28;100.00
23261;BME280;11799;47.740;-3.390;2023-03-15T13:18:40;101546.16;;;10.27;100.00
23261;BME280;11799;47.740;-3.390;2023-03-15T13:21:27;101549.91;;;10.37;100.00
23261;BME280;11799;47.740;-3.390;2023-03-15T13:23:57;101541.78;;;10.40;100.00
23261;BME280;11799;47.740;-3.390;2023-03-15T13:26:44;101531.94;;;10.42;100.00
23261;BME280;11799;47.740;-3.390;2023-03-15T13:29:21;101543.16;;;10.45;100.00
23261;BME280;11799;47.740;-3.390;2023-03-15T13:34:28;101546.09;;;10.41;100.00
23261;BME280;11799;47.740;-3.390;2023-03-15T13:36:56;101540.50;;;10.45;100.00
23261;BME280;11799;47.740;-3.390;2023-03-15T13:39:33;101540.50;;;10.45;100.00
23261;BME280;11799;47.740;-3.390;2023-03-15T13:42:01;101525.41;;;10.47;100.00
23261;BME280;11799;47.740;-3.390;2023-03-15T13:44:28;101514.75;;;10.49;100.00
23261;BME280;11799;47.740;-3.390;2023-03-15T13:46:54;101517.19;;;10.52;100.00
23261;BME280;11799;47.740;-3.390;2023-03-15T13:49:20;101510.75;;;10.56;100.00
23261;BME280;11799;47.740;-3.390;2023-03-15T13:51:48;101500.63;;;10.63;100.00
23261;BME280;11799;47.740;-3.390;2023-03-15T13:54:19;101490.69;;;10.66;100.00
23261;BME280;11799;47.740;-3.390;2023-03-15T13:59:40;101492.72;;;10.75;100.00
23261;BME280;11799;47.740;-3.390;2023-03-15T14:02:18;101470.63;;;10.76;100.00
23261;BME280;11799;47.740;-3.390;2023-03-15T14:04:52;101480.91;;;10.81;100.00
23261;BME280;11799;47.740;-3.390;2023-03-15T14:10:33;101489.66;;;10.81;100.00
23261;BME280;11799;47.740;-3.390;2023-03-15T14:16:15;101484.50;;;10.80;100.00
23261;BME280;11799;47.740;-3.390;2023-03-15T14:18:40;101490.63;;;10.80;100.00
23261;BME280;11799;47.740;-3.390;2023-03-15T14:21:14;101485.97;;;10.84;100.00
23261;BME280;11799;47.740;-3.390;2023-03-15T14:23:43;101483.31;;;10.84;100.00